Time;durP1;ratioP1;P1;durP2;ratioP2;P2;SDS_P1;SDS_P2;PMS_P1;PMS_P2;Temp;Humidity;BMP_temperature;BMP_pressure;BME280_temperature;BME280_humidity;BME280_pressure;Samples;Min_cycle;Max_cycle;Signal;HPM_P1;HPM_P2
2022/07/14 00:01:12;;;;;;;3.58;2.08;;;17.70;20.00;;;;;;5018536;28;20616;-83
2022/07/14 00:03:38;;;;;;;2.55;2.20;;;17.70;30.00;;;;;;5019007;28;20650;-84
2022/07/14 00:06:03;;;;;;;3.08;2.42;;;17.60;35.10;;;;;;5036220;28;20210;-83
2022/07/14 00:08:29;;;;;;;3.28;2.40;;;17.50;44.00;;;;;;5036779;28;20197;-84
2022/07/14 00:10:55;;;;;;;2.50;2.25;;;17.40;49.80;;;;;;5017960;28;20207;-83
2022/07/14 00:13:20;;;;;;;2.60;2.22;;;17.30;59.80;;;;;;5036901;28;20174;-84
2022/07/14 00:15:46;;;;;;;3.00;2.50;;;17.20;59.40;;;;;;5017713;28;20824;-82
2022/07/14 00:18:12;;;;;;;3.08;2.22;;;17.10;69.40;;;;;;5017916;28;21225;-85
2022/07/14 00:20:37;;;;;;;4.13;2.10;;;17.00;71.50;;;;;;5035659;28;20203;-84
2022/07/14 00:23:03;;;;;;;2.95;2.25;;;17.00;79.60;;;;;;5018074;28;20683;-83
2022/07/14 00:25:28;;;;;;;4.10;2.60;;;16.90;91.00;;;;;;5037751;28;20668;-83
2022/07/14 00:27:54;;;;;;;3.60;2.38;;;16.80;95.00;;;;;;5019378;28;20225;-83
2022/07/14 00:30:20;;;;;;;2.65;2.10;;;16.80;96.60;;;;;;5026190;28;20238;-85
2022/07/14 00:32:46;;;;;;;3.92;2.22;;;16.70;99.90;;;;;;5018299;28;20183;-83
2022/07/14 00:35:12;;;;;;;3.72;2.30;;;16.70;99.90;;;;;;5018567;28;20186;-83
2022/07/14 00:37:38;;;;;;;4.38;2.50;;;16.60;99.90;;;;;;5018755;28;20205;-84
2022/07/14 00:40:05;;;;;;;3.28;2.38;;;16.70;99.90;;;;;;5017422;28;20573;-85
2022/07/14 00:42:36;;;;;;;6.30;2.30;;;16.60;99.90;;;;;;5017514;28;20194;-84
2022/07/14 00:45:04;;;;;;;5.82;2.03;;;16.60;99.90;;;;;;5016756;28;20173;-83
2022/07/14 00:47:30;;;;;;;6.03;1.90;;;16.60;99.90;;;;;;5018788;28;20604;-83
2022/07/14 00:49:56;;;;;;;4.22;2.10;;;16.60;99.90;;;;;;5017781;28;20353;-83
2022/07/14 00:52:24;;;;;;;6.07;2.35;;;16.60;99.90;;;;;;5036508;28;20240;-85
2022/07/14 00:54:50;;;;;;;7.13;2.20;;;16.60;99.90;;;;;;5017074;28;20654;-83
2022/07/14 00:57:16;;;;;;;5.40;2.40;;;16.60;99.90;;;;;;5026388;28;20281;-84
2022/07/14 00:59:41;;;;;;;5.93;2.05;;;16.60;99.90;;;;;;5037321;28;20281;-83
2022/07/14 01:02:07;;;;;;;4.90;2.08;;;16.70;99.90;;;;;;5018822;28;20660;-84
2022/07/14 01:04:32;;;;;;;5.50;2.45;;;16.60;99.90;;;;;;5018993;28;20196;-84
2022/07/14 01:06:58;;;;;;;6.32;2.53;;;16.60;99.90;;;;;;5020313;28;20189;-84
2022/07/14 01:09:23;;;;;;;6.57;2.15;;;16.60;99.90;;;;;;5018203;28;20210;-83
2022/07/14 01:11:49;;;;;;;5.82;2.15;;;16.60;99.90;;;;;;5020556;28;20291;-84
2022/07/14 01:14:15;;;;;;;6.60;2.45;;;16.50;99.90;;;;;;5018838;28;20187;-85
2022/07/14 01:16:40;;;;;;;7.05;2.63;;;16.50;99.90;;;;;;5037036;28;20211;-84
2022/07/14 01:19:06;;;;;;;5.85;2.13;;;16.50;99.90;;;;;;5018081;28;20230;-83
2022/07/14 01:21:31;;;;;;;6.30;2.58;;;16.40;99.90;;;;;;5036326;28;20182;-84
2022/07/14 01:23:57;;;;;;;7.30;2.38;;;16.40;99.90;;;;;;5020647;28;20232;-85
2022/07/14 01:26:24;;;;;;;5.55;2.40;;;16.40;99.90;;;;;;5017175;28;20186;-84
2022/07/14 01:28:49;;;;;;;6.43;2.00;;;16.30;99.90;;;;;;5017112;28;20186;-85
2022/07/14 01:31:15;;;;;;;5.50;2.50;;;16.20;99.90;;;;;;5035098;28;20295;-85
2022/07/14 01:33:40;;;;;;;5.50;2.05;;;16.10;99.90;;;;;;5016582;28;20187;-85
2022/07/14 01:36:06;;;;;;;9.05;2.55;;;16.20;99.90;;;;;;5018041;28;20197;-84
2022/07/14 01:38:32;;;;;;;6.63;2.22;;;16.10;99.90;;;;;;5017539;28;20214;-84
2022/07/14 01:40:57;;;;;;;8.38;2.13;;;16.10;99.90;;;;;;5037345;28;20309;-84
2022/07/14 01:43:23;;;;;;;7.50;2.33;;;16.00;99.90;;;;;;5020502;28;20271;-84
2022/07/14 01:45:49;;;;;;;6.55;2.60;;;16.00;99.90;;;;;;5020836;28;20186;-85
2022/07/14 01:48:15;;;;;;;10.20;2.85;;;16.00;99.90;;;;;;5020157;28;20190;-84
2022/07/14 01:50:40;;;;;;;9.10;2.75;;;16.00;99.90;;;;;;5019597;28;20210;-85
2022/07/14 01:53:06;;;;;;;7.95;2.63;;;16.00;99.90;;;;;;5039391;28;20663;-86
2022/07/14 01:55:31;;;;;;;6.45;2.50;;;16.00;99.90;;;;;;5020103;28;20687;-83
2022/07/14 01:57:57;;;;;;;6.65;1.90;;;15.90;99.90;;;;;;5038667;28;20222;-84
2022/07/14 02:00:22;;;;;;;6.82;2.20;;;15.80;99.90;;;;;;5019651;28;20202;-84
2022/07/14 02:02:48;;;;;;;8.60;2.50;;;15.70;99.90;;;;;;5020370;28;20644;-83
2022/07/14 02:05:14;;;;;;;6.47;2.00;;;15.80;99.90;;;;;;5020255;28;20186;-85
2022/07/14 02:07:40;;;;;;;7.35;2.20;;;15.80;99.90;;;;;;5038707;28;20186;-83
2022/07/14 02:12:52;;;;;;;8.07;2.20;;;15.90;99.90;;;;;;5039302;28;20186;-83
2022/07/14 02:15:17;;;;;;;7.63;2.55;;;15.90;99.90;;;;;;5021835;28;20553;-83
2022/07/14 02:17:43;;;;;;;5.70;2.22;;;15.80;99.90;;;;;;5042274;28;20205;-83
2022/07/14 02:20:09;;;;;;;5.90;2.30;;;15.70;99.90;;;;;;5041538;28;20211;-83
2022/07/14 02:22:35;;;;;;;9.23;2.50;;;15.70;99.90;;;;;;5043306;28;20262;-86
2022/07/14 02:25:01;;;;;;;7.28;2.78;;;15.60;99.90;;;;;;5040319;28;20213;-85
2022/07/14 02:27:26;;;;;;;10.90;3.28;;;15.60;99.90;;;;;;5024349;28;20179;-83
2022/07/14 02:29:53;;;;;;;7.97;2.22;;;15.60;99.90;;;;;;5023350;28;20202;-85
2022/07/14 02:32:18;;;;;;;8.70;2.58;;;15.60;99.90;;;;;;5022306;28;20289;-83
2022/07/14 02:34:44;;;;;;;10.25;2.60;;;15.60;99.90;;;;;;5023063;28;20238;-85
2022/07/14 02:37:09;;;;;;;7.75;1.90;;;15.50;99.90;;;;;;5024679;28;21078;-84
2022/07/14 02:39:35;;;;;;;5.80;2.05;;;15.50;99.90;;;;;;5021861;28;20215;-85
2022/07/14 02:42:00;;;;;;;8.73;2.30;;;15.40;99.90;;;;;;5040976;28;20190;-84
2022/07/14 02:44:26;;;;;;;11.23;2.80;;;15.40;99.90;;;;;;5023770;28;20186;-85
2022/07/14 02:46:51;;;;;;;7.38;2.33;;;15.30;99.90;;;;;;5023058;28;20189;-85
2022/07/14 02:49:17;;;;;;;10.18;2.60;;;15.20;99.90;;;;;;5022609;28;20217;-85
2022/07/14 02:51:42;;;;;;;8.20;2.10;;;15.20;99.90;;;;;;5023077;28;20194;-85
2022/07/14 02:54:08;;;;;;;7.95;2.55;;;15.20;99.90;;;;;;5041491;28;20186;-84
2022/07/14 02:56:34;;;;;;;6.55;1.95;;;15.10;99.90;;;;;;5042440;28;20751;-86
2022/07/14 02:59:00;;;;;;;8.25;2.40;;;15.00;99.90;;;;;;5023336;28;20244;-85
2022/07/14 03:01:25;;;;;;;8.02;2.53;;;15.10;99.90;;;;;;5022075;28;20194;-83
2022/07/14 03:03:51;;;;;;;7.45;2.10;;;15.10;99.90;;;;;;5021697;28;20273;-82
2022/07/14 03:06:19;;;;;;;6.90;2.40;;;15.00;99.90;;;;;;5038506;28;20194;-81
2022/07/14 03:08:44;;;;;;;10.55;3.42;;;14.90;99.90;;;;;;5021561;28;20182;-84
2022/07/14 03:11:10;;;;;;;6.97;2.33;;;14.90;99.90;;;;;;5021841;28;20207;-83
2022/07/14 03:13:37;;;;;;;7.80;2.08;;;14.90;99.90;;;;;;5020962;28;20671;-84
2022/07/14 03:16:04;;;;;;;7.63;2.97;;;14.80;99.90;;;;;;5042807;28;20186;-83
2022/07/14 03:18:30;;;;;;;8.88;2.83;;;14.90;99.90;;;;;;5024073;28;20198;-83
2022/07/14 03:20:55;;;;;;;8.77;2.58;;;14.90;99.90;;;;;;5022423;28;20203;-85
2022/07/14 03:23:22;;;;;;;11.38;2.80;;;14.80;99.90;;;;;;5023736;28;20247;-85
2022/07/14 03:25:48;;;;;;;11.63;2.30;;;14.80;99.90;;;;;;5020197;28;20269;-86
2022/07/14 03:28:14;;;;;;;8.52;2.60;;;14.80;99.90;;;;;;5038381;28;20212;-85
2022/07/14 03:30:40;;;;;;;7.97;2.10;;;14.80;99.90;;;;;;5022578;28;20222;-87
2022/07/14 03:33:05;;;;;;;8.10;2.13;;;14.90;99.90;;;;;;5016869;28;20361;-85
2022/07/14 03:35:31;;;;;;;11.70;2.70;;;14.80;99.90;;;;;;5024054;28;20205;-84
2022/07/14 03:37:57;;;;;;;7.40;2.15;;;14.80;99.90;;;;;;5040655;28;20725;-84
2022/07/14 03:40:22;;;;;;;5.88;1.90;;;14.80;99.90;;;;;;5040514;28;21176;-84
2022/07/14 03:42:48;;;;;;;10.07;2.25;;;14.80;99.90;;;;;;5023094;28;20196;-85
2022/07/14 03:45:14;;;;;;;5.85;2.20;;;14.80;99.90;;;;;;5023155;28;20183;-85
2022/07/14 03:47:42;;;;;;;4.68;1.83;;;14.90;99.90;;;;;;5022578;28;20245;-85
2022/07/14 03:50:10;;;;;;;7.75;2.40;;;14.90;99.90;;;;;;5022524;28;20644;-85
2022/07/14 03:52:35;;;;;;;5.15;2.08;;;14.90;99.90;;;;;;5023422;28;20210;-85
2022/07/14 03:55:01;;;;;;;8.13;2.30;;;14.90;99.90;;;;;;5040677;28;20213;-85
2022/07/14 03:57:27;;;;;;;6.78;2.03;;;14.90;99.90;;;;;;5041729;28;20189;-83
2022/07/14 03:59:52;;;;;;;7.65;2.40;;;14.90;99.90;;;;;;5022907;28;20697;-84
2022/07/14 04:02:18;;;;;;;8.30;2.03;;;15.00;99.90;;;;;;5022800;28;20194;-84
2022/07/14 04:04:44;;;;;;;7.55;2.08;;;15.00;99.90;;;;;;5022457;28;20179;-85
2022/07/14 04:07:09;;;;;;;7.45;2.10;;;15.10;99.90;;;;;;5040210;28;20183;-83
2022/07/14 04:09:35;;;;;;;7.03;2.30;;;15.10;99.90;;;;;;5022138;28;20225;-83
2022/07/14 04:12:01;;;;;;;7.90;1.73;;;15.10;99.90;;;;;;5020765;28;20652;-83
2022/07/14 04:14:26;;;;;;;10.48;2.05;;;15.10;99.90;;;;;;5021088;28;20178;-83
2022/07/14 04:16:52;;;;;;;8.82;2.42;;;15.10;99.90;;;;;;5037456;28;20190;-83
2022/07/14 04:19:18;;;;;;;8.50;2.05;;;15.10;99.90;;;;;;5019926;28;20206;-85
2022/07/14 04:21:44;;;;;;;8.68;2.10;;;15.20;99.90;;;;;;5021107;28;20210;-82
2022/07/14 04:24:09;;;;;;;7.45;1.80;;;15.30;99.90;;;;;;5020844;28;20290;-83
2022/07/14 04:26:37;;;;;;;7.30;1.90;;;15.20;99.90;;;;;;5020846;28;20198;-85
2022/07/14 04:29:03;;;;;;;9.30;2.28;;;15.20;99.90;;;;;;5018205;28;20182;-85
2022/07/14 04:31:29;;;;;;;11.63;2.78;;;15.30;99.90;;;;;;5020227;28;20226;-84
2022/07/14 04:33:55;;;;;;;8.40;2.20;;;15.30;99.90;;;;;;5036944;28;20186;-83
2022/07/14 04:36:21;;;;;;;6.93;2.50;;;15.40;99.90;;;;;;5019630;28;20245;-83
2022/07/14 04:38:46;;;;;;;6.72;1.63;;;15.50;93.30;;;;;;5035881;28;20213;-84
2022/07/14 04:41:12;;;;;;;6.75;2.05;;;15.60;95.20;;;;;;5019420;28;20210;-84
2022/07/14 04:43:37;;;;;;;6.13;1.80;;;15.70;85.60;;;;;;5016258;28;20189;-84
2022/07/14 04:46:03;;;;;;;7.13;1.98;;;15.70;80.20;;;;;;5018180;28;20181;-83
2022/07/14 04:48:28;;;;;;;7.15;2.03;;;15.70;63.10;;;;;;5038550;28;20185;-83
2022/07/14 04:53:38;;;;;;;9.55;1.95;;;16.50;9.10;;;;;;5039330;28;20206;-85
2022/07/14 04:56:04;;;;;;;7.47;2.33;;;16.60;1.00;;;;;;5020781;28;20590;-85
2022/07/14 04:58:31;;;;;;;9.13;2.03;;;16.70;1.00;;;;;;5022818;28;20205;-84
2022/07/14 05:01:00;;;;;;;6.35;1.98;;;16.90;1.00;;;;;;5030380;28;20231;-85
2022/07/14 05:03:26;;;;;;;8.40;2.13;;;17.10;1.00;;;;;;5024113;28;20261;-85
2022/07/14 05:05:51;;;;;;;7.00;2.00;;;17.40;1.00;;;;;;5021922;28;20357;-83
2022/07/14 05:08:17;;;;;;;5.93;1.95;;;18.20;1.00;;;;;;5020116;28;20247;-85
2022/07/14 05:10:42;;;;;;;9.02;3.10;;;19.00;1.00;;;;;;5019941;28;20202;-86
2022/07/14 05:13:08;;;;;;;9.90;2.40;;;19.90;46.90;;;;;;5021984;28;20682;-86
2022/07/14 05:15:34;;;;;;;5.53;1.55;;;21.00;99.90;;;;;;5019372;28;20394;-85
2022/07/14 05:18:00;;;;;;;8.05;1.92;;;22.40;1.00;;;;;;5017989;28;20210;-86
2022/07/14 05:20:26;;;;;;;6.75;1.80;;;23.10;1.00;;;;;;5037775;28;20202;-86
2022/07/14 05:22:52;;;;;;;9.27;2.10;;;23.50;1.00;;;;;;5021088;28;20178;-86
2022/07/14 05:25:17;;;;;;;8.70;2.08;;;24.00;99.90;;;;;;5019554;28;20592;-86
2022/07/14 05:27:44;;;;;;;6.10;1.67;;;23.40;99.90;;;;;;5022004;28;20240;-86
2022/07/14 05:30:11;;;;;;;6.50;1.75;;;22.30;1.00;;;;;;5020060;28;21099;-86
2022/07/14 05:32:37;;;;;;;5.18;1.33;;;23.20;1.00;;;;;;5020396;28;20681;-86
2022/07/14 05:35:04;;;;;;;6.82;1.73;;;26.10;1.00;;;;;;5018763;28;20206;-85
2022/07/14 05:37:30;;;;;;;5.15;1.58;;;27.40;63.30;;;;;;5018881;28;20182;-85
2022/07/14 05:39:56;;;;;;;6.22;1.90;;;28.20;1.00;;;;;;5034611;28;20608;-87
2022/07/14 05:42:23;;;;;;;5.03;1.70;;;28.60;1.00;;;;;;5020785;28;20184;-86
2022/07/14 05:44:49;;;;;;;5.38;1.77;;;29.40;1.00;;;;;;5019731;28;20729;-85
2022/07/14 05:47:15;;;;;;;5.18;1.40;;;29.00;99.90;;;;;;5035200;28;20213;-86
2022/07/14 05:49:41;;;;;;;4.47;1.70;;;28.20;99.90;;;;;;5019819;28;20206;-87
2022/07/14 05:52:10;;;;;;;7.18;2.00;;;30.20;99.90;;;;;;5023087;28;20241;-86
2022/07/14 05:54:35;;;;;;;3.53;1.38;;;29.10;99.90;;;;;;5023079;28;20278;-85
2022/07/14 05:57:01;;;;;;;4.35;1.45;;;29.10;99.90;;;;;;5041807;28;20606;-85
2022/07/14 05:59:26;;;;;;;4.55;1.70;;;28.50;99.90;;;;;;5022866;28;20657;-86
2022/07/14 06:01:52;;;;;;;4.97;1.63;;;28.40;99.90;;;;;;5023283;28;20234;-85
2022/07/14 06:04:17;;;;;;;4.13;1.52;;;29.40;99.90;;;;;;5022975;28;20659;-86
2022/07/14 06:06:47;;;;;;;5.72;1.40;;;29.60;99.90;;;;;;5024816;28;20269;-85
2022/07/14 06:09:13;;;;;;;5.25;1.30;;;29.50;99.90;;;;;;5041217;28;20285;-86
2022/07/14 06:11:44;;;;;;;4.47;1.30;;;29.40;99.90;;;;;;5042286;28;20205;-85
2022/07/14 06:14:09;;;;;;;4.85;1.25;;;28.90;99.90;;;;;;5024636;28;20181;-84
2022/07/14 06:16:35;;;;;;;3.95;1.40;;;29.20;99.90;;;;;;5043114;28;20240;-85
2022/07/14 06:19:00;;;;;;;4.40;1.30;;;30.00;99.90;;;;;;5022283;28;20207;-86
2022/07/14 06:21:26;;;;;;;5.25;1.50;;;30.90;99.90;;;;;;5025171;28;20182;-83
2022/07/14 06:23:52;;;;;;;1.85;1.05;;;29.40;99.90;;;;;;5045016;28;20193;-83
2022/07/14 06:26:17;;;;;;;3.78;1.30;;;29.90;99.90;;;;;;5027701;28;20205;-85
2022/07/14 06:28:43;;;;;;;3.85;1.33;;;29.40;99.90;;;;;;5024405;28;20190;-85
2022/07/14 06:31:09;;;;;;;5.22;1.10;;;29.80;99.90;;;;;;5024994;28;20217;-86
2022/07/14 06:33:35;;;;;;;4.35;1.30;;;29.50;99.90;;;;;;5044287;28;20174;-84
2022/07/14 06:36:00;;;;;;;3.05;1.23;;;30.10;99.90;;;;;;5039268;28;21469;-86
2022/07/14 06:38:26;;;;;;;4.20;1.35;;;29.20;99.90;;;;;;5021836;28;20203;-86
2022/07/14 06:40:52;;;;;;;4.57;1.30;;;29.80;99.90;;;;;;5023703;28;20206;-86
2022/07/14 06:43:18;;;;;;;4.40;1.40;;;29.60;99.90;;;;;;5022703;28;20194;-86
2022/07/14 06:45:43;;;;;;;3.58;1.30;;;30.20;99.90;;;;;;5041714;28;20202;-86
2022/07/14 06:48:09;;;;;;;4.05;1.20;;;30.30;99.90;;;;;;5022538;28;20535;-85
2022/07/14 06:50:35;;;;;;;5.57;1.20;;;28.70;99.90;;;;;;5023964;28;20214;-86
2022/07/14 06:53:01;;;;;;;5.65;1.45;;;28.70;99.90;;;;;;5020826;28;20187;-83
2022/07/14 06:55:26;;;;;;;6.13;1.30;;;29.60;99.90;;;;;;5020822;28;20731;-85
2022/07/14 06:57:52;;;;;;;3.85;1.20;;;29.80;99.90;;;;;;5016789;28;20201;-82
2022/07/14 07:00:18;;;;;;;2.88;1.10;;;30.00;99.90;;;;;;5021821;28;20201;-81
2022/07/14 07:02:43;;;;;;;4.10;1.98;;;29.90;99.90;;;;;;5036280;28;20244;-84
2022/07/14 07:07:58;;;;;;;3.10;1.20;;;31.00;99.90;;;;;;5033232;28;20713;-83
2022/07/14 07:10:24;;;;;;;2.88;1.30;;;;;;;;;;5039557;28;20669;-81
2022/07/14 07:12:50;;;;;;;2.35;1.10;;;;;;;;;;5011812;28;20867;-82
2022/07/14 07:15:16;;;;;;;2.70;1.10;;;;;;;;;;5016439;28;20197;-83
2022/07/14 07:17:42;;;;;;;4.63;1.30;;;;;;;;;;5009043;28;20485;-82
2022/07/14 07:20:09;;;;;;;5.40;1.40;;;;;;;;;;5012730;28;20286;-83
2022/07/14 07:22:35;;;;;;;3.55;1.35;;;;;;;;;;5018470;28;20212;-84
2022/07/14 07:25:03;;;;;;;6.68;1.65;;;;;;;;;;5017780;28;20701;-83
2022/07/14 07:27:29;;;;;;;4.88;1.40;;;;;;;;;;5008646;28;20179;-81
2022/07/14 07:29:55;;;;;;;3.08;1.33;;;;;;;;;;5028631;28;20206;-83
2022/07/14 07:32:22;;;;;;;3.53;1.30;;;;;;;;;;5012095;28;20183;-85
2022/07/14 07:34:48;;;;;;;5.30;1.33;;;;;;;;;;5021843;28;20178;-79
2022/07/14 07:37:14;;;;;;;3.80;1.25;;;;;;;;;;5035079;28;20383;-79
2022/07/14 07:39:40;;;;;;;4.25;1.58;;;;;;;;;;5032033;28;20214;-80
2022/07/14 07:42:06;;;;;;;6.28;1.27;;;;;;;;;;5028175;28;20530;-79
2022/07/14 07:44:32;;;;;;;6.40;1.75;;;;;;;;;;5033852;28;20191;-85
2022/07/14 07:46:58;;;;;;;5.45;1.40;;;;;;;;;;5022071;28;20183;-83
2022/07/14 07:49:24;;;;;;;6.00;1.35;;;;;;;;;;5022502;28;20210;-83
2022/07/14 07:51:50;;;;;;;6.28;1.58;;;;;;;;;;5040159;28;20246;-82
2022/07/14 07:54:16;;;;;;;5.18;1.88;;;;;;;;;;5030578;28;20193;-84
2022/07/14 07:56:42;;;;;;;5.97;1.63;;;;;;;;;;5024338;28;20664;-84
2022/07/14 07:59:08;;;;;;;6.53;1.55;;;;;;;;;;5022106;28;20214;-83
2022/07/14 08:01:34;;;;;;;5.80;1.50;;;;;;;;;;5021710;28;20182;-83
2022/07/14 08:04:00;;;;;;;4.35;1.40;;;;;;;;;;5011895;28;20266;-85
2022/07/14 08:06:25;;;;;;;4.10;1.38;;;;;;;;;;5039854;28;20776;-83
2022/07/14 08:08:51;;;;;;;3.05;1.25;;;;;;;;;;5015124;28;20268;-85
2022/07/14 08:11:17;;;;;;;4.32;1.30;;;;;;;;;;5022252;28;20206;-86
2022/07/14 08:13:43;;;;;;;4.50;1.40;;;;;;;;;;5021141;28;20254;-83
2022/07/14 08:16:09;;;;;;;3.65;1.10;;;;;;;;;;5015853;28;20233;-84
2022/07/14 08:18:35;;;;;;;2.92;1.00;;;;;;;;;;5013339;28;20203;-85
2022/07/14 08:21:01;;;;;;;3.55;0.93;;;;;;;;;;5021300;28;20249;-85
2022/07/14 08:23:27;;;;;;;5.38;1.60;;;;;;;;;;5017057;28;20419;-83
2022/07/14 08:25:53;;;;;;;3.80;1.17;;;;;;;;;;5040918;28;20185;-83
2022/07/14 08:28:19;;;;;;;5.53;1.20;;;;;;;;;;5021078;28;20232;-84
2022/07/14 08:30:45;;;;;;;3.78;1.10;;;;;;;;;;5019271;28;20294;-85
2022/07/14 08:33:11;;;;;;;4.88;1.15;;;;;;;;;;5040303;28;20233;-83
2022/07/14 08:35:37;;;;;;;2.53;1.27;;;;;;;;;;5023494;28;20279;-84
2022/07/14 08:38:04;;;;;;;4.65;1.33;;;;;;;;;;5040977;28;20241;-85
2022/07/14 08:40:30;;;;;;;5.85;1.35;;;;;;;;;;5021271;28;20625;-83
2022/07/14 08:42:56;;;;;;;5.75;1.20;;;;;;;;;;5023719;28;20200;-82
2022/07/14 08:45:24;;;;;;;3.33;1.20;;;;;;;;;;5025138;28;20182;-84
2022/07/14 08:47:52;;;;;;;4.70;1.45;;;;;;;;;;5037328;28;20236;-84
2022/07/14 08:50:19;;;;;;;3.95;1.00;;;;;;;;;;5022868;28;20216;-83
2022/07/14 08:52:46;;;;;;;3.33;1.20;;;;;;;;;;5038905;28;20183;-85
2022/07/14 08:55:13;;;;;;;3.35;1.08;;;;;;;;;;5018321;28;20380;-82
2022/07/14 08:57:40;;;;;;;3.95;1.27;;;;;;;;;;5042413;28;20274;-84
2022/07/14 09:00:09;;;;;;;6.28;1.15;;;;;;;;;;5018300;28;20210;-83
2022/07/14 09:02:36;;;;;;;4.18;1.10;;;;;;;;;;5021087;28;20633;-82
2022/07/14 09:05:02;;;;;;;4.13;1.50;;;;;;;;;;5016871;28;20756;-84
2022/07/14 09:07:34;;;;;;;3.67;1.08;;;;;;;;;;5020833;28;20705;-85
2022/07/14 09:10:20;;;;;;;3.15;1.23;;;;;;;;;;5018076;28;20218;-80
2022/07/14 09:12:46;;;;;;;5.32;1.33;;;;;;;;;;5017274;28;20660;-81
2022/07/14 09:15:58;;;;;;;6.65;1.35;;;;;;;;;;5021204;28;20196;-81
2022/07/14 09:18:01;;;;;;;6.50;2.08;;;;;;;;;;5031041;28;20213;-81
2022/07/14 09:20:28;;;;;;;3.83;1.30;;;;;;;;;;5018800;28;20190;-81
2022/07/14 09:23:01;;;;;;;4.55;1.75;;;;;;;;;;5011089;28;20183;-80
2022/07/14 09:25:28;;;;;;;3.05;0.93;;;;;;;;;;5025693;28;20260;-81
2022/07/14 09:27:55;;;;;;;5.75;1.50;;;;;;;;;;5024764;28;20240;-81
2022/07/14 09:30:21;;;;;;;4.10;1.20;;;;;;;;;;5024194;28;20393;-81
2022/07/14 09:32:58;;;;;;;5.65;1.02;;;;;;;;;;5020993;28;20213;-80
2022/07/14 09:35:39;;;;;;;4.60;1.08;;;;;;;;;;5014024;28;20326;-80
2022/07/14 09:38:17;;;;;;;4.20;1.05;;;;;;;;;;5013889;28;20241;-79
2022/07/14 09:40:43;;;;;;;4.00;1.02;;;;;;;;;;5018618;28;20651;-81
2022/07/14 09:43:12;;;;;;;4.18;1.30;;;;;;;;;;5014450;28;20183;-81
2022/07/14 09:45:40;;;;;;;3.67;1.15;;;;;;;;;;5015510;28;20349;-81
2022/07/14 09:48:07;;;;;;;3.28;1.08;;;;;;;;;;5028601;28;20352;-81
2022/07/14 09:50:37;;;;;;;4.68;1.38;;;;;;;;;;5026632;28;20216;-80
2022/07/14 09:53:14;;;;;;;6.95;1.30;;;;;;;;;;5030342;28;20194;-79
2022/07/14 09:55:48;;;;;;;3.05;1.10;;;;;;;;;;5019093;28;20201;-81
2022/07/14 09:58:15;;;;;;;4.50;1.30;;;;;;;;;;5016032;28;20201;-80
2022/07/14 10:00:43;;;;;;;4.38;1.25;;;;;;;;;;5038097;28;20256;-79
2022/07/14 10:03:09;;;;;;;2.78;0.82;;;;;;;;;;5020507;28;20207;-81
2022/07/14 10:05:35;;;;;;;4.93;1.17;;;;;;;;;;5025662;28;20186;-80
2022/07/14 10:08:05;;;;;;;2.95;1.00;;;;;;;;;;5018027;28;20222;-82
2022/07/14 10:10:35;;;;;;;2.83;1.02;;;;;;;;;;5013689;28;20214;-80
2022/07/14 10:13:02;;;;;;;3.80;0.98;;;;;;;;;;5022696;28;20301;-81
2022/07/14 10:15:28;;;;;;;5.88;1.10;;;;;;;;;;5018257;28;20187;-80
2022/07/14 10:17:56;;;;;;;3.20;1.10;;;;;;;;;;5044207;28;20205;-81
2022/07/14 10:20:23;;;;;;;2.67;0.93;;;;;;;;;;5019618;28;20256;-80
2022/07/14 10:22:49;;;;;;;4.70;1.10;;;;;;;;;;5019624;28;20193;-81
2022/07/14 10:25:15;;;;;;;4.10;1.20;;;;;;;;;;5023401;28;20182;-81
2022/07/14 10:27:42;;;;;;;4.38;1.20;;;;;;;;;;5026114;28;20178;-82
2022/07/14 10:30:09;;;;;;;2.00;0.90;;;;;;;;;;5013173;28;20211;-81
2022/07/14 10:32:53;;;;;;;1.98;0.75;;;;;;;;;;5034488;28;20607;-81
2022/07/14 10:35:19;;;;;;;5.53;1.42;;;;;;;;;;5014499;28;20273;-81
2022/07/14 10:37:45;;;;;;;2.67;0.70;;;;;;;;;;5029843;28;20246;-81
2022/07/14 10:40:17;;;;;;;3.30;1.00;;;;;;;;;;5018588;28;20206;-83
2022/07/14 10:42:53;;;;;;;2.78;1.02;;;;;;;;;;5036492;28;20666;-82
2022/07/14 10:45:19;;;;;;;2.78;1.00;;;;;;;;;;5011410;28;20189;-81
2022/07/14 10:47:50;;;;;;;3.67;1.08;;;;;;;;;;5036203;28;20205;-83
2022/07/14 10:50:20;;;;;;;2.88;0.88;;;;;;;;;;5018060;28;20199;-82
2022/07/14 10:52:50;;;;;;;4.05;1.30;;;;;;;;;;5032053;28;20217;-81
2022/07/14 10:55:24;;;;;;;2.70;0.95;;;;;;;;;;5018308;28;20186;-81
2022/07/14 10:57:59;;;;;;;3.80;1.20;;;;;;;;;;5011314;28;20610;-81
2022/07/14 11:00:55;;;;;;;3.67;0.93;;;;;;;;;;5031399;28;20240;-83
2022/07/14 11:03:21;;;;;;;3.08;1.00;;;;;;;;;;5012674;28;20194;-81
2022/07/14 11:06:08;;;;;;;2.53;0.85;;;;;;;;;;5009357;28;20182;-81
2022/07/14 11:08:36;;;;;;;3.70;1.00;;;;;;;;;;5012785;28;20890;-81
2022/07/14 11:11:08;;;;;;;2.67;1.17;;;;;;;;;;5031474;28;20242;-81
2022/07/14 11:13:34;;;;;;;3.10;0.98;;;;;;;;;;5018199;28;20703;-82
2022/07/14 11:16:02;;;;;;;3.45;0.95;;;;;;;;;;5012852;28;20220;-79
2022/07/14 11:18:37;;;;;;;3.13;1.00;;;;;;;;;;5037705;28;20198;-83
2022/07/14 11:21:06;;;;;;;2.85;1.00;;;;;;;;;;5010522;28;20210;-82
2022/07/14 11:23:32;;;;;;;2.80;0.93;;;;;;;;;;5019123;28;20182;-83
2022/07/14 11:26:01;;;;;;;3.33;0.80;;;;;;;;;;5035530;28;20376;-85
2022/07/14 11:28:41;;;;;;;4.75;1.10;;;;;;;;;;5028988;28;20185;-86
2022/07/14 11:31:11;;;;;;;3.90;1.33;;;;;;;;;;5010870;28;20623;-86
2022/07/14 11:36:17;;;;;;;3.38;1.00;;;;;;;;;;5036141;28;20183;-87
2022/07/14 11:36:28;;;;;;;3.08;1.25;;;;;;;;;;5038483;28;20193;-87
2022/07/14 11:39:13;;;;;;;3.22;1.08;;;;;;;;;;5031632;28;20199;-84
2022/07/14 11:41:44;;;;;;;3.53;1.00;;;;;;;;;;5014744;28;20185;-85
2022/07/14 11:44:28;;;;;;;2.65;1.00;;;;;;;;;;5016341;28;20175;-88
2022/07/14 11:47:01;;;;;;;3.28;1.08;;;;;;;;;;5022044;28;20187;-85
2022/07/14 11:49:27;;;;;;;3.28;1.05;;;;;;;;;;5027082;28;20218;-85
2022/07/14 11:51:57;;;;;;;2.95;0.82;;;;;;;;;;5016723;28;20209;-84
2022/07/14 11:54:25;;;;;;;3.63;1.30;;;;;;;;;;5016463;28;20297;-85
2022/07/14 11:57:01;;;;;;;2.42;1.08;;;;;;;;;;5011548;28;20267;-84
2022/07/14 11:59:28;;;;;;;3.67;0.82;;;;;;;;;;5015924;28;20275;-85
2022/07/14 12:01:54;;;;;;;4.00;0.90;;;;;;;;;;5012582;28;20187;-84
2022/07/14 12:04:20;;;;;;;2.53;0.82;;;;;;;;;;5009820;28;20605;-84
2022/07/14 12:06:48;;;;;;;2.95;0.98;;;;;;;;;;5008672;28;20183;-84
2022/07/14 12:09:17;;;;;;;4.43;1.02;;;;;;;;;;5014565;28;20179;-85
2022/07/14 12:11:53;;;;;;;3.35;0.90;;;;;;;;;;5013463;28;20194;-84
2022/07/14 12:14:19;;;;;;;3.13;0.82;;;22.70;99.90;;;;;;5011294;28;20196;-83
2022/07/14 12:16:45;;;;;;;2.90;0.95;;;22.80;99.90;;;;;;5005921;28;20214;-85
2022/07/14 12:19:12;;;;;;;1.85;0.82;;;22.70;99.90;;;;;;5006870;28;20326;-83
2022/07/14 12:21:38;;;;;;;2.70;0.80;;;22.80;99.90;;;;;;5029091;28;20183;-83
2022/07/14 12:24:06;;;;;;;2.40;0.80;;;22.80;99.90;;;;;;5007747;28;20794;-83
2022/07/14 12:26:32;;;;;;;3.33;0.77;;;22.90;99.90;;;;;;5034920;28;20183;-82
2022/07/14 12:29:00;;;;;;;2.78;0.80;;;22.90;99.90;;;;;;5028021;28;20210;-86
2022/07/14 12:31:27;;;;;;;2.25;1.02;;;23.00;99.90;;;;;;5019163;28;20671;-86
2022/07/14 12:33:56;;;;;;;2.22;0.80;;;23.00;99.90;;;;;;5021475;28;20194;-86
2022/07/14 12:36:28;;;;;;;1.13;0.52;;;23.00;99.90;;;;;;5022950;28;20189;-87
2022/07/14 12:38:54;;;;;;;1.45;0.73;;;23.10;99.90;;;;;;5021281;28;20289;-87
2022/07/14 12:41:24;;;;;;;1.38;0.60;;;23.30;99.90;;;;;;5020639;28;20224;-86
2022/07/14 12:43:51;;;;;;;4.20;0.82;;;23.40;99.90;;;;;;5039921;28;20171;-87
2022/07/14 12:46:18;;;;;;;2.17;0.80;;;23.40;99.90;;;;;;5020808;28;21023;-87
2022/07/14 12:48:50;;;;;;;1.83;0.65;;;23.40;99.90;;;;;;5022040;28;20186;-88
2022/07/14 12:51:44;;;;;;;1.85;0.57;;;23.40;99.90;;;;;;5029413;28;20256;-83
2022/07/14 12:54:30;;;;;;;2.92;0.77;;;23.50;99.90;;;;;;5030268;28;20668;-87
2022/07/14 12:56:56;;;;;;;1.50;0.60;;;23.50;99.90;;;;;;5023402;28;20410;-87
2022/07/14 12:59:28;;;;;;;3.95;0.82;;;23.40;99.90;;;;;;5032378;28;20225;-87
2022/07/14 13:02:00;;;;;;;2.50;0.60;;;23.20;99.90;;;;;;5021452;28;20182;-88
2022/07/14 13:04:31;;;;;;;1.60;0.80;;;23.10;99.90;;;;;;5018244;28;20209;-87
2022/07/14 13:07:19;;;;;;;1.88;0.50;;;23.40;99.90;;;;;;5017159;28;20371;-87
2022/07/14 13:10:13;;;;;;;2.65;1.40;;;23.60;99.90;;;;;;5016779;28;20343;-88
2022/07/14 13:12:43;;;;;;;3.13;1.30;;;23.90;99.90;;;;;;5026009;28;20253;-87
2022/07/14 13:15:13;;;;;;;1.17;0.57;;;23.90;99.90;;;;;;5020312;28;20193;-87
2022/07/14 13:18:05;;;;;;;1.73;0.90;;;24.10;99.90;;;;;;5021868;28;20186;-87
2022/07/14 13:20:49;;;;;;;1.63;0.80;;;24.20;99.90;;;;;;5018626;28;20698;-87
2022/07/14 13:23:21;;;;;;;1.67;0.60;;;24.00;99.90;;;;;;5016376;28;20270;-87
2022/07/14 13:25:47;;;;;;;3.50;2.33;;;24.20;99.90;;;;;;5019036;28;20197;-89
2022/07/14 13:28:12;;;;;;;2.20;1.20;;;24.30;99.90;;;;;;5016304;28;20668;-86
2022/07/14 13:30:38;;;;;;;2.45;1.05;;;24.30;99.90;;;;;;5011295;28;20560;-87
2022/07/14 13:33:04;;;;;;;2.15;0.70;;;24.40;99.90;;;;;;5016709;28;20225;-86
2022/07/14 13:35:29;;;;;;;1.35;0.50;;;24.50;99.90;;;;;;5012746;28;20186;-86
2022/07/14 13:37:55;;;;;;;1.98;0.60;;;24.70;99.90;;;;;;5015368;28;20721;-86